createdAt,value
2022-10-05T00:01:36.434Z,12.27
2022-10-05T00:04:29.442Z,12.22
2022-10-05T00:07:20.910Z,12.15
2022-10-05T00:10:03.662Z,12.17
2022-10-05T00:12:36.785Z,12.14
2022-10-05T00:15:14.926Z,12.14
2022-10-05T00:17:47.951Z,12.10
2022-10-05T00:20:23.659Z,12.06
2022-10-05T00:23:06.545Z,12.01
2022-10-05T00:25:40.688Z,11.94
2022-10-05T00:28:31.874Z,11.82
2022-10-05T00:31:04.675Z,11.79
2022-10-05T00:33:37.495Z,11.72
2022-10-05T00:36:11.174Z,11.62
2022-10-05T00:38:45.157Z,11.58
2022-10-05T00:41:35.804Z,11.49
2022-10-05T00:44:27.076Z,11.41
2022-10-05T00:47:11.238Z,11.28
2022-10-05T00:50:12.838Z,11.24
2022-10-05T00:53:07.868Z,11.15
2022-10-05T00:56:10.166Z,11.07
2022-10-05T00:59:03.537Z,10.99
2022-10-05T01:01:45.923Z,10.88
2022-10-05T01:04:54.745Z,10.85
2022-10-05T01:07:38.452Z,10.78
2022-10-05T01:10:40.252Z,10.67
2022-10-05T01:13:34.625Z,10.62
2022-10-05T01:16:33.328Z,10.51
2022-10-05T01:19:51.954Z,10.50
2022-10-05T01:22:59.880Z,10.37
2022-10-05T01:25:49.979Z,10.37
2022-10-05T01:28:37.657Z,10.33
2022-10-05T01:31:25.923Z,10.27
2022-10-05T01:34:15.984Z,10.24
2022-10-05T01:37:02.859Z,10.20
2022-10-05T01:39:56.338Z,10.15
2022-10-05T01:42:43.736Z,10.14
2022-10-05T01:45:29.591Z,10.13
2022-10-05T01:48:07.575Z,10.02
2022-10-05T01:50:58.574Z,10.10
2022-10-05T01:53:52.056Z,10.09
2022-10-05T01:56:48.837Z,10.08
2022-10-05T01:59:39.215Z,10.03
2022-10-05T02:02:22.327Z,10.02
2022-10-05T02:05:18.827Z,10.05
2022-10-05T02:08:09.565Z,10.11
2022-10-05T02:11:17.811Z,10.17
2022-10-05T02:14:04.469Z,10.25
2022-10-05T02:17:06.629Z,10.32
2022-10-05T02:19:48.777Z,10.32
2022-10-05T02:22:40.011Z,10.33
2022-10-05T02:25:19.030Z,10.41
2022-10-05T02:28:00.571Z,10.41
2022-10-05T02:30:36.572Z,10.33
2022-10-05T02:33:20.125Z,10.28
2022-10-05T02:35:53.377Z,10.24
2022-10-05T02:38:46.345Z,10.21
2022-10-05T02:41:36.324Z,10.13
2022-10-05T02:44:28.760Z,10.19
2022-10-05T02:47:19.472Z,10.18
2022-10-05T02:50:16.112Z,10.19
2022-10-05T02:53:21.676Z,10.23
2022-10-05T02:56:11.795Z,10.22
2022-10-05T02:59:13.030Z,10.30
2022-10-05T03:02:13.987Z,10.33
2022-10-05T03:05:09.579Z,10.33
2022-10-05T03:07:59.750Z,10.38
2022-10-05T03:10:50.879Z,10.42
2022-10-05T03:13:50.563Z,10.44
2022-10-05T03:17:02.453Z,10.41
2022-10-05T03:19:53.452Z,10.45
2022-10-05T03:22:56.647Z,10.43
2022-10-05T03:25:32.163Z,10.40
2022-10-05T03:28:16.889Z,10.35
2022-10-05T03:30:57.345Z,10.29
2022-10-05T03:33:49.849Z,10.20
2022-10-05T03:36:48.683Z,10.18
2022-10-05T03:39:34.865Z,10.07
2022-10-05T03:42:26.107Z,10.06
2022-10-05T03:45:29.012Z,10.01
2022-10-05T03:48:30.788Z,9.95
2022-10-05T03:51:22.755Z,9.91
2022-10-05T03:54:22.512Z,9.83
2022-10-05T03:57:08.281Z,9.87
2022-10-05T03:59:59.106Z,9.78
2022-10-05T04:02:45.957Z,9.84
2022-10-05T04:05:31.451Z,9.83
2022-10-05T04:08:11.480Z,9.81
2022-10-05T04:10:46.138Z,9.76
2022-10-05T04:13:40.313Z,9.75
2022-10-05T04:16:18.481Z,9.70
2022-10-05T04:19:20.710Z,9.65
2022-10-05T04:22:16.245Z,9.55
2022-10-05T04:25:16.082Z,9.52
2022-10-05T04:28:05.076Z,9.55
2022-10-05T04:30:45.068Z,9.47
2022-10-05T04:33:18.532Z,9.38
2022-10-05T04:36:11.099Z,9.38
2022-10-05T04:38:48.570Z,9.39
2022-10-05T04:41:38.917Z,9.34
2022-10-05T04:44:38.762Z,9.30
2022-10-05T04:47:33.780Z,9.31
2022-10-05T04:50:29.715Z,9.28
2022-10-05T04:53:27.754Z,9.30
2022-10-05T04:56:03.587Z,9.32
2022-10-05T04:58:52.640Z,9.33
2022-10-05T05:01:39.039Z,9.34
2022-10-05T05:04:12.497Z,9.29
2022-10-05T05:06:57.342Z,9.36
2022-10-05T05:09:48.792Z,9.35
2022-10-05T05:12:46.627Z,9.42
2022-10-05T05:15:36.596Z,9.40
2022-10-05T05:18:27.146Z,9.44
2022-10-05T05:21:09.876Z,9.52
2022-10-05T05:23:52.026Z,9.56
2022-10-05T05:27:01.746Z,9.60
2022-10-05T05:30:01.319Z,9.66
2022-10-05T05:33:01.262Z,9.72
2022-10-05T05:36:12.391Z,9.72
2022-10-05T05:38:52.701Z,9.75
2022-10-05T05:41:25.525Z,9.91
2022-10-05T05:44:22.561Z,9.92
2022-10-05T05:47:22.660Z,10.03
2022-10-05T05:50:12.855Z,10.11
2022-10-05T05:52:51.406Z,10.17
2022-10-05T05:55:43.191Z,10.24
2022-10-05T05:58:21.526Z,10.31
2022-10-05T06:01:02.743Z,10.39
2022-10-05T06:03:40.142Z,10.45
2022-10-05T06:06:18.086Z,10.52
2022-10-05T06:09:03.734Z,10.58
2022-10-05T06:11:59.292Z,10.67
2022-10-05T06:14:37.515Z,10.71
2022-10-05T06:17:20.306Z,10.84
2022-10-05T06:20:02.491Z,10.92
2022-10-05T06:22:50.858Z,10.99
2022-10-05T06:25:30.469Z,11.02
2022-10-05T06:28:16.722Z,11.09
2022-10-05T06:31:21.660Z,11.19
2022-10-05T06:34:15.360Z,11.32
2022-10-05T06:37:04.973Z,11.36
2022-10-05T06:40:01.534Z,11.44
2022-10-05T06:42:47.588Z,11.59
2022-10-05T06:45:59.876Z,11.64
2022-10-05T06:49:22.612Z,11.78
2022-10-05T06:52:27.141Z,11.89
2022-10-05T06:55:02.725Z,11.98
2022-10-05T06:57:49.735Z,12.02
2022-10-05T07:00:30.144Z,12.19
2022-10-05T07:03:34.768Z,12.29
2022-10-05T07:06:32.321Z,12.40
2022-10-05T07:09:35.063Z,12.49
2022-10-05T07:12:30.262Z,12.51
2022-10-05T07:15:25.392Z,12.68
2022-10-05T07:18:22.101Z,12.81
2022-10-05T07:21:15.182Z,12.94
2022-10-05T07:24:10.490Z,13.05
2022-10-05T07:27:05.613Z,13.19
2022-10-05T07:29:55.616Z,13.29
2022-10-05T07:32:40.974Z,13.39
2022-10-05T07:35:55.704Z,13.48
2022-10-05T07:38:53.488Z,13.55
2022-10-05T07:41:41.410Z,13.59
2022-10-05T07:44:28.202Z,13.71
2022-10-05T07:47:10.422Z,13.81
2022-10-05T07:49:48.627Z,13.88
2022-10-05T07:52:42.716Z,13.95
2022-10-05T07:55:34.760Z,14.01
2022-10-05T07:58:39.597Z,14.02
2022-10-05T08:01:24.477Z,14.14
2022-10-05T08:04:13.419Z,14.21
2022-10-05T08:07:07.871Z,14.25
2022-10-05T08:09:45.999Z,14.32
2022-10-05T08:12:54.287Z,14.47
2022-10-05T08:15:32.208Z,14.63
2022-10-05T08:18:44.727Z,14.75
2022-10-05T08:21:18.776Z,14.82
2022-10-05T08:24:08.656Z,14.88
2022-10-05T08:27:06.748Z,15.04
2022-10-05T08:29:54.216Z,15.15
2022-10-05T08:32:46.073Z,15.24
2022-10-05T08:35:38.167Z,15.31
2022-10-05T08:38:20.769Z,15.39
2022-10-05T08:41:20.428Z,15.51
2022-10-05T08:44:28.591Z,15.55
2022-10-05T08:47:37.987Z,15.58
2022-10-05T08:50:26.690Z,15.67
2022-10-05T08:53:06.731Z,15.70
2022-10-05T08:55:52.990Z,15.75
2022-10-05T08:58:46.667Z,15.72
2022-10-05T09:01:41.944Z,15.79
2022-10-05T09:04:41.212Z,15.76
2022-10-05T09:07:22.687Z,15.81
2022-10-05T09:10:17.993Z,15.89
2022-10-05T09:13:31.940Z,15.88
2022-10-05T09:16:27.495Z,16.01
2022-10-05T09:19:42.360Z,16.05
2022-10-05T09:22:31.670Z,16.11
2022-10-05T09:25:20.248Z,16.16
2022-10-05T09:27:59.146Z,16.23
2022-10-05T09:30:58.918Z,16.22
2022-10-05T09:33:55.633Z,16.32
2022-10-05T09:36:28.963Z,16.48
2022-10-05T09:39:23.036Z,16.61
2022-10-05T09:42:30.927Z,16.63
2022-10-05T09:45:27.776Z,16.77
2022-10-05T09:48:17.020Z,16.87
2022-10-05T09:51:00.616Z,16.87
2022-10-05T09:54:18.890Z,16.89
2022-10-05T09:57:08.965Z,16.88
2022-10-05T10:00:10.826Z,16.93
2022-10-05T10:02:53.056Z,16.99
2022-10-05T10:06:02.537Z,17.03
2022-10-05T10:08:59.549Z,17.15
2022-10-05T10:12:11.279Z,17.24
2022-10-05T10:15:09.752Z,17.26
2022-10-05T10:18:05.414Z,17.30
2022-10-05T10:21:10.842Z,17.27
2022-10-05T10:24:16.317Z,17.24
2022-10-05T10:26:58.312Z,17.09
2022-10-05T10:29:40.494Z,17.00
2022-10-05T10:32:30.765Z,17.02
2022-10-05T10:35:32.945Z,16.99
2022-10-05T10:38:26.239Z,16.96
2022-10-05T10:41:24.842Z,16.84
2022-10-05T10:44:22.453Z,16.87
2022-10-05T10:47:30.540Z,16.83
2022-10-05T10:50:29.743Z,16.79
2022-10-05T10:53:25.305Z,16.76
2022-10-05T10:56:45.617Z,16.86
2022-10-05T10:59:42.089Z,16.89
2022-10-05T11:02:32.122Z,16.87
2022-10-05T11:05:27.838Z,16.96
2022-10-05T11:08:46.964Z,17.00
2022-10-05T11:11:51.736Z,17.04
2022-10-05T11:14:49.686Z,17.10
2022-10-05T11:17:55.626Z,17.14
2022-10-05T11:20:36.195Z,17.17
2022-10-05T11:23:38.933Z,17.12
2022-10-05T11:26:51.693Z,17.16
2022-10-05T11:29:32.662Z,17.15
2022-10-05T11:32:33.343Z,17.10
2022-10-05T11:35:25.132Z,16.98
2022-10-05T11:38:08.302Z,16.87
2022-10-05T11:41:12.997Z,16.91
2022-10-05T11:44:12.795Z,16.93
2022-10-05T11:47:11.742Z,17.02
2022-10-05T11:49:43.705Z,17.02
2022-10-05T11:52:23.919Z,16.99
2022-10-05T11:55:26.301Z,17.01
2022-10-05T11:58:28.396Z,17.02
2022-10-05T12:01:20.383Z,17.06
2022-10-05T12:04:05.228Z,17.05
2022-10-05T12:07:03.498Z,17.10
2022-10-05T12:10:20.723Z,17.10
2022-10-05T12:13:09.287Z,17.13
2022-10-05T12:16:12.270Z,17.14
2022-10-05T12:19:02.197Z,17.10
2022-10-05T12:21:42.016Z,17.19
2022-10-05T12:24:27.623Z,17.25
2022-10-05T12:27:13.384Z,17.29
2022-10-05T12:30:11.121Z,17.32
2022-10-05T12:33:13.129Z,17.35
2022-10-05T12:36:13.797Z,17.34
2022-10-05T12:38:55.960Z,17.42
2022-10-05T12:41:36.996Z,17.42
2022-10-05T12:44:22.299Z,17.45
2022-10-05T12:47:26.725Z,17.43
2022-10-05T12:49:59.538Z,17.35
2022-10-05T12:52:43.414Z,17.29
2022-10-05T12:55:45.002Z,17.34
2022-10-05T12:58:19.703Z,17.34
2022-10-05T13:01:06.268Z,17.35
2022-10-05T13:04:05.328Z,17.35
2022-10-05T13:06:54.533Z,17.34
2022-10-05T13:09:41.137Z,17.40
2022-10-05T13:12:36.379Z,17.37
2022-10-05T13:15:33.474Z,17.34
2022-10-05T13:18:32.729Z,17.49
2022-10-05T13:21:14.552Z,17.54
2022-10-05T13:23:57.594Z,17.53
2022-10-05T13:26:38.647Z,17.56
2022-10-05T13:29:25.991Z,17.58
2022-10-05T13:32:08.575Z,17.53
2022-10-05T13:35:06.709Z,17.53
2022-10-05T13:37:46.825Z,17.57
2022-10-05T13:40:24.458Z,17.55
2022-10-05T13:43:18.018Z,17.53
2022-10-05T13:45:57.193Z,17.53
2022-10-05T13:49:04.883Z,17.51
2022-10-05T13:51:46.809Z,17.48
2022-10-05T13:54:47.649Z,17.48
2022-10-05T13:57:21.545Z,17.40
2022-10-05T14:00:26.511Z,17.38
2022-10-05T14:03:02.478Z,17.40
2022-10-05T14:05:38.176Z,17.31
2022-10-05T14:08:21.252Z,17.33
2022-10-05T14:10:56.605Z,17.31
2022-10-05T14:13:50.179Z,17.27
2022-10-05T14:16:26.690Z,17.24
2022-10-05T14:19:23.133Z,17.21
2022-10-05T14:22:04.559Z,17.12
2022-10-05T14:24:53.203Z,17.10
2022-10-05T14:27:31.595Z,17.07
2022-10-05T14:30:24.837Z,17.09
2022-10-05T14:33:07.749Z,17.00
2022-10-05T14:35:58.145Z,17.01
2022-10-05T14:38:54.835Z,16.98
2022-10-05T14:41:29.950Z,16.89
2022-10-05T14:47:23.082Z,16.87
2022-10-05T14:50:18.325Z,16.78
2022-10-05T14:53:10.930Z,16.65
2022-10-05T14:56:01.347Z,16.62
2022-10-05T14:59:01.054Z,16.54
2022-10-05T15:01:39.864Z,16.55
2022-10-05T15:04:35.167Z,16.49
2022-10-05T15:07:25.523Z,16.43
2022-10-05T15:10:00.702Z,16.37
2022-10-05T15:12:47.290Z,16.30
2022-10-05T15:15:43.466Z,16.23
2022-10-05T15:18:46.173Z,16.14
2022-10-05T15:21:36.772Z,15.98
2022-10-05T15:24:25.759Z,15.85
2022-10-05T15:27:05.605Z,15.80
2022-10-05T15:29:57.074Z,15.68
2022-10-05T15:32:42.502Z,15.56
2022-10-05T15:35:48.395Z,15.43
2022-10-05T15:38:30.655Z,15.33
2022-10-05T15:41:11.187Z,15.21
2022-10-05T15:44:06.452Z,15.09
2022-10-05T15:47:01.016Z,14.95
2022-10-05T15:49:58.927Z,14.77
2022-10-05T15:52:48.439Z,14.69
2022-10-05T15:55:35.924Z,14.59
2022-10-05T15:58:14.616Z,14.49
2022-10-05T16:00:59.424Z,14.41
2022-10-05T16:03:51.681Z,14.33
2022-10-05T16:07:05.895Z,14.21
2022-10-05T16:10:05.465Z,14.12
2022-10-05T16:12:45.786Z,14.04
2022-10-05T16:15:38.348Z,13.97
2022-10-05T16:18:33.433Z,13.83
2022-10-05T16:21:29.782Z,13.75
2022-10-05T16:24:16.099Z,13.59
2022-10-05T16:27:10.762Z,13.54
2022-10-05T16:29:56.328Z,13.42
2022-10-05T16:32:42.992Z,13.39
2022-10-05T16:35:30.514Z,13.34
2022-10-05T16:38:27.426Z,13.31
2022-10-05T16:41:09.507Z,13.22
2022-10-05T16:44:00.430Z,13.11
2022-10-05T16:46:49.851Z,13.05
2022-10-05T16:49:41.402Z,12.99
2022-10-05T16:52:20.847Z,12.92
2022-10-05T16:55:05.475Z,12.85
2022-10-05T16:57:48.974Z,12.83
2022-10-05T17:00:26.610Z,12.80
2022-10-05T17:03:19.677Z,12.71
2022-10-05T17:06:19.392Z,12.69
2022-10-05T17:09:33.449Z,12.71
2022-10-05T17:12:38.756Z,12.64
2022-10-05T17:15:31.903Z,12.59
2022-10-05T17:18:39.111Z,12.54
2022-10-05T17:21:14.466Z,12.48
2022-10-05T17:24:02.844Z,12.44
2022-10-05T17:26:59.645Z,12.41
2022-10-05T17:29:53.595Z,12.35
2022-10-05T17:32:26.050Z,12.27
2022-10-05T17:35:05.017Z,12.22
2022-10-05T17:37:44.159Z,12.21
2022-10-05T17:40:39.430Z,12.10
2022-10-05T17:43:18.825Z,12.05
2022-10-05T17:45:55.474Z,12.06
2022-10-05T17:48:45.833Z,12.02
2022-10-05T17:51:52.027Z,11.99
2022-10-05T17:54:51.225Z,11.93
2022-10-05T17:57:28.455Z,11.93
2022-10-05T18:00:05.414Z,11.94
2022-10-05T18:02:38.780Z,11.89
2022-10-05T18:05:15.199Z,11.82
2022-10-05T18:08:11.502Z,11.74
2022-10-05T18:11:18.907Z,11.81
2022-10-05T18:14:10.408Z,11.91
2022-10-05T18:17:00.158Z,11.88
2022-10-05T18:19:38.144Z,11.95
2022-10-05T18:22:19.878Z,11.92
2022-10-05T18:25:04.339Z,11.97
2022-10-05T18:28:05.754Z,11.94
2022-10-05T18:31:06.663Z,11.90
2022-10-05T18:34:09.262Z,11.88
2022-10-05T18:36:59.399Z,11.88
2022-10-05T18:39:54.503Z,11.85
2022-10-05T18:42:46.610Z,11.85
2022-10-05T18:45:32.355Z,11.91
2022-10-05T18:48:39.343Z,11.92
2022-10-05T18:51:50.986Z,11.98
2022-10-05T18:54:56.798Z,11.97
2022-10-05T18:57:48.587Z,11.97
2022-10-05T19:00:25.557Z,11.91
2022-10-05T19:03:32.062Z,11.97
2022-10-05T19:06:17.105Z,11.89
2022-10-05T19:09:02.625Z,11.93
2022-10-05T19:12:16.538Z,11.94
2022-10-05T19:15:12.426Z,11.94
2022-10-05T19:17:50.911Z,11.88
2022-10-05T19:20:27.879Z,11.87
2022-10-05T19:23:17.796Z,11.89
2022-10-05T19:26:32.045Z,11.87
2022-10-05T19:29:18.298Z,11.82
2022-10-05T19:32:01.961Z,11.81
2022-10-05T19:34:54.784Z,11.80
2022-10-05T19:37:58.558Z,11.82
2022-10-05T19:40:50.603Z,11.79
2022-10-05T19:43:38.435Z,11.75
2022-10-05T19:46:34.949Z,11.71
2022-10-05T19:49:12.537Z,11.60
2022-10-05T19:51:59.651Z,11.54
2022-10-05T19:54:33.587Z,11.50
2022-10-05T19:57:19.480Z,11.43
2022-10-05T19:59:56.521Z,11.29
2022-10-05T20:02:35.008Z,11.27
2022-10-05T20:05:10.805Z,11.21
2022-10-05T20:07:44.000Z,11.15
2022-10-05T20:10:32.932Z,11.09
2022-10-05T20:13:09.166Z,11.03
2022-10-05T20:16:01.373Z,10.97
2022-10-05T20:19:10.368Z,10.91
2022-10-05T20:21:52.219Z,10.88
2022-10-05T20:24:29.801Z,10.85
2022-10-05T20:27:05.940Z,10.82
2022-10-05T20:29:43.818Z,10.78
2022-10-05T20:32:18.792Z,10.68
2022-10-05T20:34:56.065Z,10.71
2022-10-05T20:37:28.510Z,10.63
2022-10-05T20:40:01.213Z,10.59
2022-10-05T20:42:34.175Z,10.55
2022-10-05T20:45:06.984Z,10.56
2022-10-05T20:47:40.847Z,10.55
2022-10-05T20:50:14.033Z,10.55
2022-10-05T20:52:47.590Z,10.54
2022-10-05T20:55:21.075Z,10.52
2022-10-05T20:57:54.228Z,10.50
2022-10-05T21:00:28.929Z,10.47
2022-10-05T21:03:03.864Z,10.39
2022-10-05T21:05:36.424Z,10.32
2022-10-05T21:08:09.071Z,10.36
2022-10-05T21:10:41.978Z,10.34
2022-10-05T21:13:14.954Z,10.37
2022-10-05T21:15:47.753Z,10.27
2022-10-05T21:18:20.583Z,10.33
2022-10-05T21:20:53.529Z,10.31
2022-10-05T21:23:26.863Z,10.23
2022-10-05T21:25:59.461Z,10.21
2022-10-05T21:28:32.997Z,10.24
2022-10-05T21:31:06.405Z,10.21
2022-10-05T21:33:39.263Z,10.18
2022-10-05T21:36:12.190Z,10.15
2022-10-05T21:38:45.466Z,10.12
2022-10-05T21:41:18.672Z,10.09
2022-10-05T21:43:51.757Z,10.09
2022-10-05T21:46:26.987Z,10.05
2022-10-05T21:48:59.650Z,10.04
2022-10-05T21:51:32.475Z,10.03
2022-10-05T21:54:15.823Z,10.00
2022-10-05T21:56:52.186Z,9.94
2022-10-05T21:59:28.518Z,9.99
2022-10-05T22:02:01.185Z,9.94
2022-10-05T22:04:33.866Z,9.93
2022-10-05T22:07:18.940Z,9.95
2022-10-05T22:09:52.407Z,9.95
2022-10-05T22:12:26.811Z,9.94
2022-10-05T22:14:59.594Z,9.94
2022-10-05T22:17:32.891Z,9.93
2022-10-05T22:20:05.891Z,9.86
2022-10-05T22:22:38.618Z,9.91
2022-10-05T22:25:11.565Z,9.90
2022-10-05T22:27:44.744Z,9.87
2022-10-05T22:30:17.563Z,9.85
2022-10-05T22:32:50.493Z,9.83
2022-10-05T22:35:23.026Z,9.78
2022-10-05T22:37:55.838Z,9.68
2022-10-05T22:40:28.699Z,9.72
2022-10-05T22:43:01.437Z,9.71
2022-10-05T22:45:34.274Z,9.74
2022-10-05T22:48:07.256Z,9.71
2022-10-05T22:50:40.287Z,9.70
2022-10-05T22:53:13.483Z,9.69
2022-10-05T22:55:46.966Z,9.67
2022-10-05T22:58:20.106Z,9.67
2022-10-05T23:00:58.443Z,9.65
2022-10-05T23:03:35.136Z,9.58
2022-10-05T23:06:12.625Z,9.57
2022-10-05T23:08:46.475Z,9.62
2022-10-05T23:11:24.049Z,9.59
2022-10-05T23:13:57.940Z,9.56
2022-10-05T23:16:31.429Z,9.55
2022-10-05T23:19:04.664Z,9.56
2022-10-05T23:21:37.957Z,9.54
2022-10-05T23:24:11.325Z,9.52
2022-10-05T23:26:44.972Z,9.50
2022-10-05T23:29:18.294Z,9.49
2022-10-05T23:31:52.090Z,9.46
2022-10-05T23:34:26.347Z,9.43
2022-10-05T23:36:59.684Z,9.40
2022-10-05T23:39:32.965Z,9.38
2022-10-05T23:42:06.656Z,9.36
2022-10-05T23:44:42.997Z,9.33
2022-10-05T23:47:16.266Z,9.30
2022-10-05T23:49:50.086Z,9.27
2022-10-05T23:52:23.507Z,9.26
2022-10-05T23:54:56.936Z,9.24
2022-10-05T23:57:30.144Z,9.22
